createdAt,value
2022-10-04T00:00:25.397Z,4.60
2022-10-04T00:05:56.831Z,4.60
2022-10-04T00:11:14.168Z,3.70
2022-10-04T00:16:26.134Z,4.60
2022-10-04T00:21:55.448Z,4.10
2022-10-04T00:27:21.889Z,6.70
2022-10-04T00:32:28.153Z,5.30
2022-10-04T00:37:57.674Z,5.00
2022-10-04T00:43:14.119Z,4.90
2022-10-04T00:48:31.082Z,5.80
2022-10-04T00:53:42.827Z,5.30
2022-10-04T00:59:08.739Z,4.50
2022-10-04T01:04:28.919Z,4.60
2022-10-04T01:09:35.853Z,4.00
2022-10-04T01:14:55.661Z,6.40
2022-10-04T01:19:58.396Z,5.70
2022-10-04T01:25:01.671Z,5.30
2022-10-04T01:30:09.616Z,5.60
2022-10-04T01:35:14.772Z,6.00
2022-10-04T01:40:17.979Z,5.60
2022-10-04T01:45:45.927Z,5.40
2022-10-04T01:50:58.697Z,3.70
2022-10-04T01:56:25.452Z,4.80
2022-10-04T02:06:42.923Z,5.90
2022-10-04T02:11:52.671Z,6.30
2022-10-04T02:16:56.121Z,5.10
2022-10-04T02:22:01.318Z,4.20
2022-10-04T02:27:06.419Z,5.90
2022-10-04T02:32:29.336Z,4.80
2022-10-04T02:37:32.481Z,6.50
2022-10-04T02:42:49.271Z,5.60
2022-10-04T02:53:11.599Z,6.30
2022-10-04T02:58:19.522Z,5.00
2022-10-04T03:03:24.857Z,4.80
2022-10-04T03:08:30.489Z,5.80
2022-10-04T03:13:34.384Z,6.60
2022-10-04T03:18:37.962Z,4.80
2022-10-04T03:23:42.634Z,4.20
2022-10-04T03:28:46.286Z,5.60
2022-10-04T03:33:50.218Z,4.40
2022-10-04T03:38:55.389Z,4.50
2022-10-04T03:44:01.490Z,5.50
2022-10-04T03:49:09.204Z,8.10
2022-10-04T03:54:18.688Z,5.80
2022-10-04T03:59:25.837Z,5.40
2022-10-04T04:05:03.264Z,5.90
2022-10-04T04:10:18.619Z,7.90
2022-10-04T04:15:21.830Z,7.30
2022-10-04T04:20:43.856Z,6.80
2022-10-04T04:25:54.857Z,6.00
2022-10-04T04:31:06.313Z,5.10
2022-10-04T04:36:12.644Z,5.40
2022-10-04T04:41:15.921Z,6.20
2022-10-04T04:46:27.909Z,6.80
2022-10-04T04:51:33.387Z,5.90
2022-10-04T04:56:36.432Z,7.40
2022-10-04T05:01:45.899Z,6.70
2022-10-04T05:07:00.369Z,7.80
2022-10-04T05:12:18.271Z,7.20
2022-10-04T05:17:26.957Z,4.40
2022-10-04T05:22:31.918Z,5.40
2022-10-04T05:27:45.081Z,4.70
2022-10-04T05:33:01.482Z,6.20
2022-10-04T05:38:20.283Z,8.30
2022-10-04T05:43:37.515Z,5.10
2022-10-04T05:48:43.603Z,6.90
2022-10-04T05:53:50.010Z,9.10
2022-10-04T05:58:55.040Z,6.80
2022-10-04T06:04:01.617Z,5.00
2022-10-04T06:09:49.479Z,5.90
2022-10-04T06:14:58.790Z,4.80
2022-10-04T06:20:40.564Z,6.10
2022-10-04T06:25:52.042Z,6.70
2022-10-04T06:31:26.040Z,5.30
2022-10-04T06:36:37.777Z,5.30
2022-10-04T06:42:08.542Z,4.10
2022-10-04T06:47:29.846Z,4.30
2022-10-04T06:52:54.916Z,3.90
2022-10-04T06:58:12.894Z,7.20
2022-10-04T07:03:23.372Z,4.60
2022-10-04T07:08:51.324Z,3.80
2022-10-04T07:14:03.482Z,5.70
2022-10-04T07:19:35.077Z,4.80
2022-10-04T07:25:14.923Z,5.20
2022-10-04T07:30:20.831Z,6.00
2022-10-04T07:35:23.470Z,7.20
2022-10-04T07:40:32.451Z,4.50
2022-10-04T07:45:42.888Z,6.80
2022-10-04T07:51:18.791Z,4.70
2022-10-04T07:56:42.771Z,5.40
2022-10-04T08:02:02.080Z,5.50
2022-10-04T08:07:19.976Z,3.50
2022-10-04T08:13:09.865Z,4.00
2022-10-04T08:18:25.779Z,3.30
2022-10-04T08:23:28.573Z,7.60
2022-10-04T08:29:25.636Z,4.20
2022-10-04T08:34:56.090Z,3.80
2022-10-04T08:39:58.807Z,5.30
2022-10-04T08:45:02.218Z,4.60
2022-10-04T08:50:21.334Z,4.00
2022-10-04T08:55:58.598Z,4.80
2022-10-04T09:01:33.002Z,4.10
2022-10-04T09:07:02.138Z,2.80
2022-10-04T09:12:35.860Z,3.80
2022-10-04T09:18:08.256Z,3.90
2022-10-04T09:23:46.730Z,4.70
2022-10-04T09:29:30.630Z,4.90
2022-10-04T09:34:37.704Z,3.60
2022-10-04T09:45:22.005Z,2.20
2022-10-04T09:51:01.966Z,5.10
2022-10-04T09:56:10.763Z,3.20
2022-10-04T10:01:38.332Z,2.70
2022-10-04T10:06:50.384Z,5.30
2022-10-04T10:12:35.159Z,6.80
2022-10-04T10:17:47.860Z,3.80
2022-10-04T10:23:12.559Z,6.10
2022-10-04T10:28:18.319Z,3.80
2022-10-04T10:33:52.748Z,3.90
2022-10-04T10:39:17.687Z,4.00
2022-10-04T10:44:23.628Z,3.50
2022-10-04T10:50:04.050Z,3.90
2022-10-04T10:55:08.077Z,5.50
2022-10-04T11:00:13.846Z,5.00
2022-10-04T11:06:12.218Z,4.00
2022-10-04T11:11:33.498Z,2.70
2022-10-04T11:16:48.426Z,5.50
2022-10-04T11:22:06.965Z,3.20
2022-10-04T11:27:32.384Z,4.10
2022-10-04T11:33:02.984Z,3.30
2022-10-04T11:38:52.439Z,4.40
2022-10-04T11:44:32.946Z,4.50
2022-10-04T11:49:54.168Z,2.70
2022-10-04T11:55:06.708Z,3.90
2022-10-04T12:00:21.058Z,2.60
2022-10-04T12:05:24.004Z,4.00
2022-10-04T12:10:29.867Z,3.50
2022-10-04T12:15:42.353Z,3.60
2022-10-04T12:20:54.277Z,2.00
2022-10-04T12:26:23.317Z,2.00
2022-10-04T12:31:34.958Z,2.90
2022-10-04T12:37:13.840Z,2.90
2022-10-04T12:42:49.696Z,2.20
2022-10-04T12:48:10.542Z,3.90
2022-10-04T12:53:20.870Z,3.40
2022-10-04T12:58:51.024Z,4.50
2022-10-04T13:04:39.139Z,3.20
2022-10-04T13:10:23.079Z,2.50
2022-10-04T13:21:09.344Z,3.70
2022-10-04T13:26:35.742Z,2.30
2022-10-04T13:31:59.689Z,5.60
2022-10-04T13:37:24.452Z,2.30
2022-10-04T13:42:37.697Z,2.30
2022-10-04T13:48:02.601Z,1.70
2022-10-04T13:53:34.081Z,1.70
2022-10-04T13:58:56.801Z,3.90
2022-10-04T14:04:17.927Z,4.00
2022-10-04T14:09:42.763Z,4.80
2022-10-04T14:15:10.139Z,2.70
2022-10-04T14:20:23.372Z,4.10
2022-10-04T14:25:31.139Z,3.40
2022-10-04T14:31:01.987Z,5.00
2022-10-04T14:36:37.446Z,3.00
2022-10-04T14:41:52.106Z,4.40
2022-10-04T14:47:15.983Z,4.80
2022-10-04T14:52:42.083Z,4.40
2022-10-04T14:58:02.682Z,4.40
2022-10-04T15:03:29.222Z,3.80
2022-10-04T15:08:56.473Z,3.10
2022-10-04T15:14:19.336Z,4.10
2022-10-04T15:19:22.038Z,3.40
2022-10-04T15:24:43.137Z,5.70
2022-10-04T15:30:11.180Z,4.20
2022-10-04T15:35:40.691Z,5.20
2022-10-04T15:41:03.923Z,3.70
2022-10-04T15:46:42.597Z,4.60
2022-10-04T15:52:25.864Z,6.20
2022-10-04T15:57:53.079Z,5.00
2022-10-04T16:03:17.830Z,6.30
2022-10-04T16:08:47.335Z,2.40
2022-10-04T16:13:57.625Z,7.20
2022-10-04T16:19:31.150Z,5.80
2022-10-04T16:24:53.402Z,5.30
2022-10-04T16:30:29.462Z,7.70
2022-10-04T16:35:49.950Z,6.20
2022-10-04T16:40:52.596Z,6.50
2022-10-04T16:46:25.092Z,6.20
2022-10-04T16:51:46.472Z,6.90
2022-10-04T16:56:54.060Z,10.20
2022-10-04T17:02:12.675Z,10.80
2022-10-04T17:07:41.937Z,5.80
2022-10-04T17:13:12.407Z,8.00
2022-10-04T17:18:44.754Z,12.00
2022-10-04T17:24:32.700Z,9.70
2022-10-04T17:29:55.257Z,11.30
2022-10-04T17:35:01.001Z,10.60
2022-10-04T17:40:12.758Z,14.10
2022-10-04T17:45:43.051Z,13.40
2022-10-04T17:51:17.401Z,23.40
2022-10-04T17:56:30.496Z,24.20
2022-10-04T18:01:43.045Z,23.60
2022-10-04T18:07:29.797Z,25.80
2022-10-04T18:12:51.929Z,24.10
2022-10-04T18:18:16.263Z,21.10
2022-10-04T18:23:28.262Z,43.80
2022-10-04T18:28:34.829Z,79.10
2022-10-04T18:33:40.449Z,79.40
2022-10-04T18:38:45.653Z,66.60
2022-10-04T18:43:52.663Z,45.60
2022-10-04T18:49:28.222Z,43.60
2022-10-04T18:55:04.515Z,38.50
2022-10-04T19:00:30.878Z,23.00
2022-10-04T19:05:51.670Z,23.10
2022-10-04T19:11:17.825Z,15.20
2022-10-04T19:16:59.620Z,17.10
2022-10-04T19:22:41.152Z,20.00
2022-10-04T19:27:53.288Z,16.50
2022-10-04T19:33:18.988Z,19.70
2022-10-04T19:38:52.457Z,22.10
2022-10-04T19:44:08.483Z,18.70
2022-10-04T19:49:29.350Z,21.20
2022-10-04T19:54:39.667Z,20.50
2022-10-04T19:59:48.447Z,12.20
2022-10-04T20:04:52.443Z,13.70
2022-10-04T20:10:01.287Z,12.40
2022-10-04T20:15:15.001Z,17.20
2022-10-04T20:20:42.835Z,16.60
2022-10-04T20:25:45.970Z,12.80
2022-10-04T20:30:55.213Z,13.80
2022-10-04T20:35:59.938Z,16.20
2022-10-04T20:41:02.677Z,13.70
2022-10-04T20:46:22.912Z,11.10
2022-10-04T20:51:30.274Z,11.90
2022-10-04T20:56:33.553Z,8.80
2022-10-04T21:01:42.803Z,11.00
2022-10-04T21:06:57.271Z,9.30
2022-10-04T21:12:01.998Z,10.40
2022-10-04T21:17:31.044Z,9.90
2022-10-04T21:22:35.435Z,8.40
2022-10-04T21:27:43.454Z,11.30
2022-10-04T21:32:46.730Z,11.00
2022-10-04T21:37:49.434Z,12.90
2022-10-04T21:42:52.144Z,10.80
2022-10-04T21:47:54.880Z,10.30
2022-10-04T21:52:59.790Z,11.00
2022-10-04T21:58:02.561Z,10.20
2022-10-04T22:03:05.434Z,7.30
2022-10-04T22:08:08.219Z,10.40
2022-10-04T22:13:10.969Z,8.70
2022-10-04T22:18:13.829Z,9.40
2022-10-04T22:23:24.566Z,9.30
2022-10-04T22:28:29.863Z,9.60
2022-10-04T22:33:35.661Z,9.40
2022-10-04T22:38:38.440Z,9.10
2022-10-04T22:43:41.311Z,10.70
2022-10-04T22:48:46.529Z,11.20
2022-10-04T22:53:49.424Z,10.10
2022-10-04T22:58:52.734Z,7.30
2022-10-04T23:03:57.894Z,8.80
2022-10-04T23:09:00.649Z,9.30
2022-10-04T23:14:03.452Z,10.30
2022-10-04T23:19:15.698Z,9.10
2022-10-04T23:24:21.395Z,11.50
2022-10-04T23:29:25.865Z,10.30
2022-10-04T23:34:40.675Z,10.90
2022-10-04T23:39:44.869Z,11.00
2022-10-04T23:44:49.766Z,11.80
2022-10-04T23:49:53.739Z,12.20
2022-10-04T23:54:56.654Z,14.70
